sensor_id;sensor_type;location;lat;lon;timestamp;P1;durP1;ratioP1;P2;durP2;ratioP2
57323;SDS011;43160;51.008;18.248;2023-04-15T00:03:02;23.50;;;12.70;;
57323;SDS011;43160;51.008;18.248;2023-04-15T00:12:47;26.20;;;11.60;;
57323;SDS011;43160;51.008;18.248;2023-04-15T00:22:31;24.10;;;11.10;;
57323;SDS011;43160;51.008;18.248;2023-04-15T00:32:14;23.60;;;13.10;;
57323;SDS011;43160;51.008;18.248;2023-04-15T00:41:59;29.30;;;15.30;;
57323;SDS011;43160;51.008;18.248;2023-04-15T00:51:44;29.30;;;15.90;;
57323;SDS011;43160;51.008;18.248;2023-04-15T01:01:29;34.20;;;12.50;;
57323;SDS011;43160;51.008;18.248;2023-04-15T01:11:15;24.90;;;11.80;;
57323;SDS011;43160;51.008;18.248;2023-04-15T01:21:00;21.10;;;10.60;;
57323;SDS011;43160;51.008;18.248;2023-04-15T01:30:46;21.90;;;11.30;;
57323;SDS011;43160;51.008;18.248;2023-04-15T01:40:32;25.40;;;12.50;;
57323;SDS011;43160;51.008;18.248;2023-04-15T01:50:17;17.90;;;7.90;;
57323;SDS011;43160;51.008;18.248;2023-04-15T02:00:04;29.40;;;14.90;;
57323;SDS011;43160;51.008;18.248;2023-04-15T02:09:50;25.70;;;13.40;;
57323;SDS011;43160;51.008;18.248;2023-04-15T02:19:34;21.40;;;8.90;;
57323;SDS011;43160;51.008;18.248;2023-04-15T02:29:20;20.30;;;8.70;;
57323;SDS011;43160;51.008;18.248;2023-04-15T02:39:05;14.00;;;6.60;;
57323;SDS011;43160;51.008;18.248;2023-04-15T02:48:49;17.60;;;8.50;;
57323;SDS011;43160;51.008;18.248;2023-04-15T02:58:36;16.60;;;7.30;;
57323;SDS011;43160;51.008;18.248;2023-04-15T03:08:18;16.40;;;7.60;;
57323;SDS011;43160;51.008;18.248;2023-04-15T03:18:04;25.80;;;8.50;;
57323;SDS011;43160;51.008;18.248;2023-04-15T03:27:47;21.90;;;9.40;;
57323;SDS011;43160;51.008;18.248;2023-04-15T03:37:30;15.40;;;6.10;;
57323;SDS011;43160;51.008;18.248;2023-04-15T03:47:13;18.10;;;6.60;;
57323;SDS011;43160;51.008;18.248;2023-04-15T03:56:57;11.80;;;4.10;;
57323;SDS011;43160;51.008;18.248;2023-04-15T04:06:40;13.20;;;4.20;;
57323;SDS011;43160;51.008;18.248;2023-04-15T04:16:23;18.10;;;5.90;;
57323;SDS011;43160;51.008;18.248;2023-04-15T04:26:06;17.70;;;6.30;;
57323;SDS011;43160;51.008;18.248;2023-04-15T04:35:49;21.00;;;7.90;;
57323;SDS011;43160;51.008;18.248;2023-04-15T04:45:32;14.80;;;6.60;;
57323;SDS011;43160;51.008;18.248;2023-04-15T04:55:14;17.30;;;6.10;;
57323;SDS011;43160;51.008;18.248;2023-04-15T05:04:59;13.30;;;5.90;;
57323;SDS011;43160;51.008;18.248;2023-04-15T05:14:43;10.90;;;4.50;;
57323;SDS011;43160;51.008;18.248;2023-04-15T05:24:27;14.50;;;4.50;;
57323;SDS011;43160;51.008;18.248;2023-04-15T05:34:10;10.70;;;3.80;;
57323;SDS011;43160;51.008;18.248;2023-04-15T05:43:54;13.80;;;4.60;;
57323;SDS011;43160;51.008;18.248;2023-04-15T05:53:38;11.50;;;4.70;;
57323;SDS011;43160;51.008;18.248;2023-04-15T06:03:23;11.50;;;4.00;;
57323;SDS011;43160;51.008;18.248;2023-04-15T06:13:07;9.00;;;3.30;;
57323;SDS011;43160;51.008;18.248;2023-04-15T06:22:50;7.70;;;2.10;;
57323;SDS011;43160;51.008;18.248;2023-04-15T06:32:34;10.00;;;4.10;;
57323;SDS011;43160;51.008;18.248;2023-04-15T06:42:18;6.60;;;2.70;;
57323;SDS011;43160;51.008;18.248;2023-04-15T06:52:04;9.00;;;3.80;;
57323;SDS011;43160;51.008;18.248;2023-04-15T07:01:48;9.00;;;2.80;;
57323;SDS011;43160;51.008;18.248;2023-04-15T07:11:33;8.80;;;2.40;;
57323;SDS011;43160;51.008;18.248;2023-04-15T07:21:16;5.40;;;2.10;;
57323;SDS011;43160;51.008;18.248;2023-04-15T07:30:58;8.70;;;2.60;;
57323;SDS011;43160;51.008;18.248;2023-04-15T07:40:42;10.00;;;2.60;;
57323;SDS011;43160;51.008;18.248;2023-04-15T07:50:26;7.80;;;2.20;;
57323;SDS011;43160;51.008;18.248;2023-04-15T08:00:13;8.30;;;2.10;;
57323;SDS011;43160;51.008;18.248;2023-04-15T08:10:03;7.50;;;1.80;;
57323;SDS011;43160;51.008;18.248;2023-04-15T08:19:49;5.20;;;1.60;;
57323;SDS011;43160;51.008;18.248;2023-04-15T08:29:33;15.20;;;4.70;;
57323;SDS011;43160;51.008;18.248;2023-04-15T08:39:19;10.70;;;2.60;;
57323;SDS011;43160;51.008;18.248;2023-04-15T08:49:09;6.90;;;2.10;;
57323;SDS011;43160;51.008;18.248;2023-04-15T08:58:54;3.00;;;1.30;;
57323;SDS011;43160;51.008;18.248;2023-04-15T09:08:39;8.50;;;2.20;;
57323;SDS011;43160;51.008;18.248;2023-04-15T09:18:26;6.30;;;2.20;;
57323;SDS011;43160;51.008;18.248;2023-04-15T09:28:11;5.40;;;2.00;;
57323;SDS011;43160;51.008;18.248;2023-04-15T09:38:05;5.40;;;1.60;;
57323;SDS011;43160;51.008;18.248;2023-04-15T09:47:54;5.40;;;1.50;;
57323;SDS011;43160;51.008;18.248;2023-04-15T09:57:40;3.20;;;1.50;;
57323;SDS011;43160;51.008;18.248;2023-04-15T10:07:37;4.30;;;1.50;;
57323;SDS011;43160;51.008;18.248;2023-04-15T10:17:25;5.70;;;1.70;;
57323;SDS011;43160;51.008;18.248;2023-04-15T10:27:17;4.30;;;1.60;;
57323;SDS011;43160;51.008;18.248;2023-04-15T10:37:01;3.70;;;1.60;;
57323;SDS011;43160;51.008;18.248;2023-04-15T10:46:57;5.60;;;1.40;;
57323;SDS011;43160;51.008;18.248;2023-04-15T10:57:20;3.90;;;1.10;;
57323;SDS011;43160;51.008;18.248;2023-04-15T11:07:54;3.30;;;1.60;;
57323;SDS011;43160;51.008;18.248;2023-04-15T11:17:51;6.80;;;2.00;;
57323;SDS011;43160;51.008;18.248;2023-04-15T11:27:51;6.40;;;2.00;;
57323;SDS011;43160;51.008;18.248;2023-04-15T11:37:41;8.50;;;2.40;;
57323;SDS011;43160;51.008;18.248;2023-04-15T11:47:38;6.60;;;2.20;;
57323;SDS011;43160;51.008;18.248;2023-04-15T11:57:42;1.00;;;1.00;;
57323;SDS011;43160;51.008;18.248;2023-04-15T12:07:28;5.30;;;1.60;;
57323;SDS011;43160;51.008;18.248;2023-04-15T12:17:12;8.60;;;2.40;;
57323;SDS011;43160;51.008;18.248;2023-04-15T12:27:02;6.20;;;2.00;;
57323;SDS011;43160;51.008;18.248;2023-04-15T12:37:10;5.90;;;1.90;;
57323;SDS011;43160;51.008;18.248;2023-04-15T12:46:55;6.10;;;1.90;;
57323;SDS011;43160;51.008;18.248;2023-04-15T12:56:41;2.20;;;1.40;;
57323;SDS011;43160;51.008;18.248;2023-04-15T13:06:24;6.90;;;2.00;;
57323;SDS011;43160;51.008;18.248;2023-04-15T13:16:12;10.30;;;3.40;;
57323;SDS011;43160;51.008;18.248;2023-04-15T13:25:58;10.60;;;4.10;;
57323;SDS011;43160;51.008;18.248;2023-04-15T13:35:42;15.10;;;3.70;;
57323;SDS011;43160;51.008;18.248;2023-04-15T13:45:27;11.40;;;4.60;;
57323;SDS011;43160;51.008;18.248;2023-04-15T13:55:12;10.90;;;4.40;;
57323;SDS011;43160;51.008;18.248;2023-04-15T14:04:56;10.80;;;4.10;;
57323;SDS011;43160;51.008;18.248;2023-04-15T14:14:39;11.40;;;4.60;;
57323;SDS011;43160;51.008;18.248;2023-04-15T14:24:23;8.90;;;3.40;;
57323;SDS011;43160;51.008;18.248;2023-04-15T14:34:09;9.90;;;3.60;;
57323;SDS011;43160;51.008;18.248;2023-04-15T14:43:54;9.80;;;3.60;;
57323;SDS011;43160;51.008;18.248;2023-04-15T14:53:38;8.60;;;2.60;;
57323;SDS011;43160;51.008;18.248;2023-04-15T15:03:23;9.90;;;4.00;;
57323;SDS011;43160;51.008;18.248;2023-04-15T15:13:08;8.20;;;3.60;;
57323;SDS011;43160;51.008;18.248;2023-04-15T15:22:52;11.30;;;4.30;;
57323;SDS011;43160;51.008;18.248;2023-04-15T15:32:36;9.80;;;3.80;;
57323;SDS011;43160;51.008;18.248;2023-04-15T15:42:22;10.60;;;4.10;;
57323;SDS011;43160;51.008;18.248;2023-04-15T15:52:06;11.30;;;3.90;;
57323;SDS011;43160;51.008;18.248;2023-04-15T16:01:52;10.10;;;4.20;;
57323;SDS011;43160;51.008;18.248;2023-04-15T16:11:36;10.20;;;3.60;;
57323;SDS011;43160;51.008;18.248;2023-04-15T16:21:22;10.30;;;4.20;;
57323;SDS011;43160;51.008;18.248;2023-04-15T16:31:07;11.20;;;3.60;;
57323;SDS011;43160;51.008;18.248;2023-04-15T16:40:51;9.40;;;3.50;;
57323;SDS011;43160;51.008;18.248;2023-04-15T16:50:35;9.10;;;2.70;;
57323;SDS011;43160;51.008;18.248;2023-04-15T17:00:19;9.70;;;3.50;;
57323;SDS011;43160;51.008;18.248;2023-04-15T17:10:02;10.20;;;3.40;;
57323;SDS011;43160;51.008;18.248;2023-04-15T17:19:47;10.40;;;3.60;;
57323;SDS011;43160;51.008;18.248;2023-04-15T17:29:30;10.80;;;3.40;;
57323;SDS011;43160;51.008;18.248;2023-04-15T17:39:15;15.60;;;4.30;;
57323;SDS011;43160;51.008;18.248;2023-04-15T17:48:58;11.60;;;4.60;;
57323;SDS011;43160;51.008;18.248;2023-04-15T17:56:16;13.90;;;5.70;;
57323;SDS011;43160;51.008;18.248;2023-04-15T18:06:00;10.90;;;4.30;;
57323;SDS011;43160;51.008;18.248;2023-04-15T18:15:43;13.00;;;3.70;;
57323;SDS011;43160;51.008;18.248;2023-04-15T18:25:26;11.00;;;4.60;;
57323;SDS011;43160;51.008;18.248;2023-04-15T18:35:10;10.70;;;4.30;;
57323;SDS011;43160;51.008;18.248;2023-04-15T18:44:53;11.40;;;3.50;;
57323;SDS011;43160;51.008;18.248;2023-04-15T19:09:13;15.10;;;5.80;;
57323;SDS011;43160;51.008;18.248;2023-04-15T19:18:57;19.50;;;6.80;;
57323;SDS011;43160;51.008;18.248;2023-04-15T19:28:40;19.50;;;7.20;;
57323;SDS011;43160;51.008;18.248;2023-04-15T19:38:28;17.90;;;8.10;;
57323;SDS011;43160;51.008;18.248;2023-04-15T19:48:16;20.50;;;10.10;;
57323;SDS011;43160;51.008;18.248;2023-04-15T19:58:00;20.80;;;9.60;;
57323;SDS011;43160;51.008;18.248;2023-04-15T20:07:43;24.50;;;10.90;;
57323;SDS011;43160;51.008;18.248;2023-04-15T20:17:32;27.70;;;9.90;;
57323;SDS011;43160;51.008;18.248;2023-04-15T20:27:15;13.40;;;5.40;;
57323;SDS011;43160;51.008;18.248;2023-04-15T20:37:01;29.80;;;11.70;;
57323;SDS011;43160;51.008;18.248;2023-04-15T20:46:46;25.00;;;11.10;;
57323;SDS011;43160;51.008;18.248;2023-04-15T20:56:30;30.50;;;12.10;;
57323;SDS011;43160;51.008;18.248;2023-04-15T21:06:13;23.50;;;11.90;;
57323;SDS011;43160;51.008;18.248;2023-04-15T21:15:56;27.50;;;13.30;;
57323;SDS011;43160;51.008;18.248;2023-04-15T21:25:49;32.60;;;14.30;;
57323;SDS011;43160;51.008;18.248;2023-04-15T21:35:32;25.80;;;10.70;;
57323;SDS011;43160;51.008;18.248;2023-04-15T21:45:16;49.30;;;16.60;;
57323;SDS011;43160;51.008;18.248;2023-04-15T21:54:59;34.90;;;13.80;;
57323;SDS011;43160;51.008;18.248;2023-04-15T22:04:43;23.60;;;8.50;;
57323;SDS011;43160;51.008;18.248;2023-04-15T22:14:26;39.50;;;16.90;;
57323;SDS011;43160;51.008;18.248;2023-04-15T22:24:11;34.20;;;12.70;;
57323;SDS011;43160;51.008;18.248;2023-04-15T22:33:54;31.10;;;13.30;;
57323;SDS011;43160;51.008;18.248;2023-04-15T22:43:37;11.20;;;4.40;;
57323;SDS011;43160;51.008;18.248;2023-04-15T22:53:20;32.50;;;14.80;;
57323;SDS011;43160;51.008;18.248;2023-04-15T23:03:03;33.50;;;14.70;;
57323;SDS011;43160;51.008;18.248;2023-04-15T23:19:01;39.70;;;14.20;;
57323;SDS011;43160;51.008;18.248;2023-04-15T23:28:45;38.70;;;14.70;;
57323;SDS011;43160;51.008;18.248;2023-04-15T23:38:51;28.00;;;13.30;;
57323;SDS011;43160;51.008;18.248;2023-04-15T23:48:36;37.00;;;16.00;;
57323;SDS011;43160;51.008;18.248;2023-04-15T23:58:21;26.90;;;10.40;;
